createdAt,value
2022-10-17T00:02:06.760Z,100.00
2022-10-17T00:04:54.955Z,100.00
2022-10-17T00:07:42.837Z,100.00
2022-10-17T00:10:31.544Z,100.00
2022-10-17T00:13:19.520Z,100.00
2022-10-17T00:16:09.780Z,100.00
2022-10-17T00:18:58.433Z,100.00
2022-10-17T00:21:48.855Z,100.00
2022-10-17T00:24:37.005Z,100.00
2022-10-17T00:27:25.647Z,100.00
2022-10-17T00:30:15.602Z,100.00
2022-10-17T00:33:05.808Z,100.00
2022-10-17T00:36:06.911Z,100.00
2022-10-17T00:38:59.163Z,100.00
2022-10-17T00:41:48.669Z,100.00
2022-10-17T00:45:16.102Z,100.00
2022-10-17T00:48:09.622Z,100.00
2022-10-17T00:51:00.422Z,100.00
2022-10-17T00:53:51.584Z,100.00
2022-10-17T00:56:40.424Z,100.00
2022-10-17T00:59:32.773Z,100.00
2022-10-17T01:02:23.308Z,100.00
2022-10-17T01:05:12.330Z,100.00
2022-10-17T01:08:02.109Z,100.00
2022-10-17T01:11:01.299Z,100.00
2022-10-17T01:13:57.712Z,100.00
2022-10-17T01:16:54.115Z,100.00
2022-10-17T01:20:15.642Z,100.00
2022-10-17T01:23:19.009Z,100.00
2022-10-17T01:26:16.317Z,100.00
2022-10-17T01:29:30.038Z,100.00
2022-10-17T01:32:22.484Z,100.00
2022-10-17T01:35:18.843Z,100.00
2022-10-17T01:38:13.741Z,100.00
2022-10-17T01:41:09.524Z,100.00
2022-10-17T01:44:03.835Z,100.00
2022-10-17T01:46:58.663Z,100.00
2022-10-17T01:49:51.754Z,100.00
2022-10-17T01:52:42.859Z,100.00
2022-10-17T01:55:35.326Z,100.00
2022-10-17T01:58:27.033Z,100.00
2022-10-17T02:01:16.356Z,100.00
2022-10-17T02:04:06.748Z,100.00
2022-10-17T02:06:54.834Z,100.00
2022-10-17T02:09:44.091Z,100.00
2022-10-17T02:12:54.901Z,100.00
2022-10-17T02:16:06.854Z,100.00
2022-10-17T02:19:13.903Z,100.00
2022-10-17T02:22:14.046Z,100.00
2022-10-17T02:25:08.465Z,100.00
2022-10-17T02:28:04.528Z,100.00
2022-10-17T02:30:59.119Z,100.00
2022-10-17T02:33:55.086Z,100.00
2022-10-17T02:36:47.929Z,100.00
2022-10-17T02:39:38.361Z,100.00
2022-10-17T02:42:29.438Z,100.00
2022-10-17T02:45:19.047Z,100.00
2022-10-17T02:48:11.310Z,100.00
2022-10-17T02:51:07.836Z,100.00
2022-10-17T02:54:05.795Z,100.00
2022-10-17T02:56:59.937Z,100.00
2022-10-17T02:59:50.054Z,100.00
2022-10-17T03:02:45.495Z,100.00
2022-10-17T03:05:33.635Z,100.00
2022-10-17T03:08:22.520Z,100.00
2022-10-17T03:11:10.333Z,100.00
2022-10-17T03:13:58.638Z,100.00
2022-10-17T03:16:47.042Z,100.00
2022-10-17T03:19:36.047Z,100.00
2022-10-17T03:22:24.515Z,100.00
2022-10-17T03:25:13.014Z,100.00
2022-10-17T03:28:04.959Z,100.00
2022-10-17T03:30:52.989Z,100.00
2022-10-17T03:33:41.341Z,100.00
2022-10-17T03:36:29.677Z,100.00
2022-10-17T03:39:18.556Z,100.00
2022-10-17T03:42:06.899Z,100.00
2022-10-17T03:44:55.277Z,100.00
2022-10-17T03:47:43.918Z,100.00
2022-10-17T03:50:32.114Z,100.00
2022-10-17T03:53:21.436Z,100.00
2022-10-17T03:56:17.203Z,100.00
2022-10-17T03:59:06.381Z,100.00
2022-10-17T04:01:56.376Z,100.00
2022-10-17T04:04:44.691Z,100.00
2022-10-17T04:07:33.431Z,100.00
2022-10-17T04:10:22.111Z,100.00
2022-10-17T04:13:13.222Z,100.00
2022-10-17T04:16:04.589Z,100.00
2022-10-17T04:18:55.686Z,100.00
2022-10-17T04:21:45.100Z,100.00
2022-10-17T04:24:34.925Z,100.00
2022-10-17T04:28:36.958Z,100.00
2022-10-17T04:31:25.317Z,100.00
2022-10-17T04:34:27.873Z,100.00
2022-10-17T04:37:18.542Z,100.00
2022-10-17T04:40:12.531Z,100.00
2022-10-17T04:43:07.204Z,100.00
2022-10-17T04:46:07.044Z,100.00
2022-10-17T04:48:57.253Z,100.00
2022-10-17T04:51:45.868Z,100.00
2022-10-17T04:54:47.331Z,100.00
2022-10-17T04:57:37.940Z,100.00
2022-10-17T05:00:41.501Z,100.00
2022-10-17T05:03:37.034Z,100.00
2022-10-17T05:06:27.651Z,100.00
2022-10-17T05:09:30.147Z,100.00
2022-10-17T05:12:21.359Z,100.00
2022-10-17T05:15:13.430Z,100.00
2022-10-17T05:18:08.195Z,100.00
2022-10-17T05:20:57.368Z,100.00
2022-10-17T05:23:45.596Z,100.00
2022-10-17T05:26:33.704Z,100.00
2022-10-17T05:29:22.186Z,100.00
2022-10-17T05:32:14.935Z,100.00
2022-10-17T05:35:05.248Z,100.00
2022-10-17T05:37:53.997Z,100.00
2022-10-17T05:40:42.747Z,100.00
2022-10-17T05:43:32.103Z,100.00
2022-10-17T05:46:20.199Z,100.00
2022-10-17T05:49:19.645Z,100.00
2022-10-17T05:52:23.536Z,100.00
2022-10-17T05:55:36.407Z,100.00
2022-10-17T05:58:45.629Z,100.00
2022-10-17T06:01:50.467Z,100.00
2022-10-17T06:04:45.739Z,100.00
2022-10-17T06:07:42.206Z,100.00
2022-10-17T06:10:34.947Z,100.00
2022-10-17T06:13:26.361Z,100.00
2022-10-17T06:16:15.652Z,100.00
2022-10-17T06:19:04.745Z,100.00
2022-10-17T06:21:53.097Z,100.00
2022-10-17T06:24:43.811Z,100.00
2022-10-17T06:27:32.965Z,100.00
2022-10-17T06:30:22.757Z,100.00
2022-10-17T06:33:11.498Z,100.00
2022-10-17T06:36:00.143Z,100.00
2022-10-17T06:38:48.649Z,100.00
2022-10-17T06:41:54.054Z,100.00
2022-10-17T06:44:52.434Z,100.00
2022-10-17T06:47:59.623Z,100.00
2022-10-17T06:51:42.143Z,100.00
2022-10-17T06:58:30.147Z,100.00
2022-10-17T07:01:41.785Z,100.00
2022-10-17T07:04:34.769Z,100.00
2022-10-17T07:07:23.109Z,100.00
2022-10-17T07:10:12.106Z,100.00
2022-10-17T07:13:01.771Z,100.00
2022-10-17T07:15:59.729Z,100.00
2022-10-17T07:18:49.024Z,100.00
2022-10-17T07:21:39.301Z,100.00
2022-10-17T07:24:30.031Z,100.00
2022-10-17T07:27:30.139Z,100.00
2022-10-17T07:30:20.519Z,100.00
2022-10-17T07:33:24.318Z,100.00
2022-10-17T07:36:13.664Z,100.00
2022-10-17T07:39:02.233Z,100.00
2022-10-17T07:41:51.858Z,100.00
2022-10-17T07:44:40.788Z,100.00
2022-10-17T07:47:30.906Z,100.00
2022-10-17T07:50:20.961Z,100.00
2022-10-17T07:53:09.348Z,100.00
2022-10-17T07:55:57.232Z,100.00
2022-10-17T07:58:45.648Z,100.00
2022-10-17T08:01:34.423Z,100.00
2022-10-17T08:04:23.861Z,100.00
2022-10-17T08:07:20.936Z,100.00
2022-10-17T08:10:14.467Z,100.00
2022-10-17T08:13:03.401Z,100.00
2022-10-17T08:15:51.459Z,100.00
2022-10-17T08:18:43.320Z,100.00
2022-10-17T08:21:31.514Z,100.00
2022-10-17T08:24:19.796Z,100.00
2022-10-17T08:27:10.818Z,100.00
2022-10-17T08:29:59.016Z,100.00
2022-10-17T08:32:46.742Z,100.00
2022-10-17T08:35:35.066Z,100.00
2022-10-17T08:38:26.186Z,100.00
2022-10-17T08:41:31.678Z,100.00
2022-10-17T08:44:32.926Z,100.00
2022-10-17T08:47:27.947Z,100.00
2022-10-17T08:50:24.382Z,100.00
2022-10-17T08:53:21.986Z,100.00
2022-10-17T08:56:19.950Z,100.00
2022-10-17T08:59:21.013Z,100.00
2022-10-17T09:02:25.779Z,100.00
2022-10-17T09:05:37.154Z,100.00
2022-10-17T09:08:41.715Z,100.00
2022-10-17T09:11:54.639Z,100.00
2022-10-17T09:15:09.619Z,100.00
2022-10-17T09:18:02.500Z,100.00
2022-10-17T09:20:58.246Z,100.00
2022-10-17T09:23:49.167Z,100.00
2022-10-17T09:26:38.906Z,100.00
2022-10-17T09:29:36.094Z,100.00
2022-10-17T09:32:26.718Z,100.00
2022-10-17T09:35:17.626Z,100.00
2022-10-17T09:38:08.047Z,100.00
2022-10-17T09:41:00.684Z,100.00
2022-10-17T09:43:49.008Z,100.00
2022-10-17T09:46:38.900Z,100.00
2022-10-17T09:49:36.166Z,100.00
2022-10-17T09:52:29.393Z,100.00
2022-10-17T09:55:22.268Z,100.00
2022-10-17T09:58:12.419Z,100.00
2022-10-17T10:01:21.115Z,100.00
2022-10-17T10:04:14.202Z,98.89
2022-10-17T10:07:06.751Z,100.00
2022-10-17T10:09:56.843Z,100.00
2022-10-17T10:13:03.884Z,99.29
2022-10-17T10:15:52.485Z,98.37
2022-10-17T10:18:41.414Z,97.78
2022-10-17T10:21:29.961Z,96.44
2022-10-17T10:24:19.840Z,95.63
2022-10-17T10:27:13.693Z,95.59
2022-10-17T10:30:03.370Z,95.26
2022-10-17T10:32:51.726Z,92.89
2022-10-17T10:35:41.043Z,93.32
2022-10-17T10:38:29.733Z,92.70
2022-10-17T10:41:18.491Z,92.09
2022-10-17T10:44:17.118Z,90.89
2022-10-17T10:47:18.770Z,89.18
2022-10-17T10:50:23.712Z,88.73
2022-10-17T10:53:25.808Z,87.85
2022-10-17T10:56:21.545Z,86.44
2022-10-17T10:59:18.574Z,84.76
2022-10-17T11:02:18.412Z,85.52
2022-10-17T11:05:15.888Z,83.46
2022-10-17T11:08:17.235Z,82.45
2022-10-17T11:11:17.558Z,81.39
2022-10-17T11:14:13.851Z,81.91
2022-10-17T11:17:12.394Z,80.99
2022-10-17T11:20:12.237Z,81.45
2022-10-17T11:23:12.366Z,80.21
2022-10-17T11:26:06.715Z,78.39
2022-10-17T11:29:01.168Z,76.42
2022-10-17T11:31:55.665Z,75.32
2022-10-17T11:34:47.905Z,75.56
2022-10-17T11:37:41.122Z,74.75
2022-10-17T11:40:34.461Z,75.78
2022-10-17T11:43:29.227Z,73.66
2022-10-17T11:46:23.437Z,73.62
2022-10-17T11:49:20.482Z,73.22
2022-10-17T11:52:43.915Z,73.77
2022-10-17T11:55:33.881Z,71.95
2022-10-17T11:58:40.036Z,71.50
2022-10-17T12:01:38.091Z,70.50
2022-10-17T12:04:44.767Z,68.43
2022-10-17T12:10:46.327Z,66.44
2022-10-17T12:13:54.541Z,65.51
2022-10-17T12:16:48.588Z,63.75
2022-10-17T12:19:37.727Z,63.58
2022-10-17T12:22:27.343Z,63.36
2022-10-17T12:25:21.429Z,61.52
2022-10-17T12:28:16.988Z,61.82
2022-10-17T12:31:12.064Z,62.18
2022-10-17T12:34:02.548Z,61.95
2022-10-17T12:36:50.710Z,61.18
2022-10-17T12:39:47.538Z,62.16
2022-10-17T12:42:51.511Z,62.21
2022-10-17T12:45:51.941Z,61.90
2022-10-17T12:49:30.894Z,60.82
2022-10-17T12:52:25.839Z,60.87
2022-10-17T12:55:17.285Z,60.49
2022-10-17T12:58:12.821Z,60.03
2022-10-17T13:04:12.589Z,59.33
2022-10-17T13:07:01.929Z,58.82
2022-10-17T13:09:51.622Z,58.41
2022-10-17T13:12:41.306Z,57.52
2022-10-17T13:15:30.303Z,57.44
2022-10-17T13:18:24.627Z,57.79
2022-10-17T13:21:16.743Z,57.63
2022-10-17T13:24:23.455Z,57.13
2022-10-17T13:27:28.643Z,56.21
2022-10-17T13:31:19.176Z,56.73
2022-10-17T13:34:16.444Z,56.30
2022-10-17T13:37:07.334Z,55.81
2022-10-17T13:39:58.155Z,55.63
2022-10-17T13:42:49.755Z,55.28
2022-10-17T13:45:39.826Z,55.34
2022-10-17T13:48:33.524Z,54.63
2022-10-17T13:51:22.278Z,54.49
2022-10-17T13:54:33.050Z,54.88
2022-10-17T13:57:23.911Z,54.09
2022-10-17T14:00:22.289Z,54.25
2022-10-17T14:03:10.822Z,54.10
2022-10-17T14:06:14.117Z,54.82
2022-10-17T14:09:22.228Z,54.56
2022-10-17T14:12:12.741Z,56.64
2022-10-17T14:19:38.051Z,71.91
2022-10-17T14:22:28.810Z,74.56
2022-10-17T14:25:31.549Z,74.22
2022-10-17T14:28:23.819Z,74.60
2022-10-17T14:31:25.663Z,74.27
2022-10-17T14:34:24.137Z,74.76
2022-10-17T14:37:32.294Z,75.41
2022-10-17T14:40:23.194Z,75.98
2022-10-17T14:43:21.903Z,76.23
2022-10-17T14:47:41.643Z,76.89
2022-10-17T14:50:26.731Z,77.54
2022-10-17T14:53:21.670Z,78.37
2022-10-17T14:56:25.342Z,78.26
2022-10-17T14:59:30.079Z,77.71
2022-10-17T15:02:53.927Z,77.13
2022-10-17T15:05:42.146Z,76.17
2022-10-17T15:08:29.984Z,75.49
2022-10-17T15:11:17.997Z,75.79
2022-10-17T15:14:08.071Z,74.11
2022-10-17T15:16:57.322Z,73.60
2022-10-17T15:19:45.619Z,73.42
2022-10-17T15:22:36.153Z,72.54
2022-10-17T15:25:25.691Z,72.04
2022-10-17T15:28:14.468Z,71.35
2022-10-17T15:31:04.191Z,70.74
2022-10-17T15:33:52.703Z,70.07
2022-10-17T15:36:42.786Z,68.87
2022-10-17T15:39:31.314Z,68.64
2022-10-17T15:42:20.667Z,67.56
2022-10-17T15:45:11.591Z,67.36
2022-10-17T15:48:05.190Z,67.01
2022-10-17T15:50:53.345Z,67.12
2022-10-17T15:53:41.979Z,66.77
2022-10-17T15:56:36.361Z,66.21
2022-10-17T15:59:32.270Z,65.92
2022-10-17T16:02:22.731Z,65.66
2022-10-17T16:05:16.165Z,65.06
2022-10-17T16:08:04.398Z,59.50
2022-10-17T16:10:53.617Z,56.13
2022-10-17T16:13:42.490Z,53.94
2022-10-17T16:16:30.926Z,52.69
2022-10-17T16:19:20.329Z,51.95
2022-10-17T16:22:16.850Z,51.71
2022-10-17T16:25:09.527Z,51.43
2022-10-17T16:27:59.557Z,51.33
2022-10-17T16:30:48.842Z,51.76
2022-10-17T16:33:37.404Z,51.91
2022-10-17T16:36:26.815Z,51.95
2022-10-17T16:39:15.062Z,52.11
2022-10-17T16:42:03.352Z,52.51
2022-10-17T16:44:52.593Z,52.82
2022-10-17T16:47:41.370Z,53.29
2022-10-17T16:50:30.795Z,53.89
2022-10-17T16:53:19.085Z,54.36
2022-10-17T16:56:10.014Z,55.02
2022-10-17T16:59:00.958Z,55.66
2022-10-17T17:01:48.869Z,56.28
2022-10-17T17:04:37.164Z,58.21
2022-10-17T17:07:29.519Z,58.04
2022-10-17T17:10:18.793Z,59.14
2022-10-17T17:13:07.059Z,60.27
2022-10-17T17:16:09.918Z,60.97
2022-10-17T17:19:04.657Z,62.10
2022-10-17T17:21:53.314Z,62.84
2022-10-17T17:24:41.751Z,63.00
2022-10-17T17:27:30.152Z,65.15
2022-10-17T17:30:19.089Z,66.25
2022-10-17T17:33:07.216Z,66.49
2022-10-17T17:36:00.321Z,68.32
2022-10-17T17:38:49.115Z,69.47
2022-10-17T17:41:37.214Z,70.25
2022-10-17T17:44:26.201Z,71.67
2022-10-17T17:47:14.682Z,73.04
2022-10-17T17:50:03.151Z,74.12
2022-10-17T17:52:51.660Z,75.81
2022-10-17T17:55:39.777Z,76.63
2022-10-17T17:58:28.344Z,77.97
2022-10-17T18:01:21.389Z,79.22
2022-10-17T18:04:10.976Z,80.46
2022-10-17T18:06:58.853Z,81.74
2022-10-17T18:09:47.661Z,83.15
2022-10-17T18:12:36.711Z,83.92
2022-10-17T18:15:25.062Z,85.03
2022-10-17T18:18:16.365Z,85.98
2022-10-17T18:21:05.436Z,86.81
2022-10-17T18:23:54.102Z,87.92
2022-10-17T18:26:42.953Z,89.14
2022-10-17T18:29:32.197Z,90.45
2022-10-17T18:32:20.596Z,91.73
2022-10-17T18:35:46.208Z,92.14
2022-10-17T18:38:47.205Z,94.15
2022-10-17T18:41:35.260Z,95.11
2022-10-17T18:44:23.555Z,95.88
2022-10-17T18:47:11.492Z,97.49
2022-10-17T18:49:59.810Z,97.72
2022-10-17T18:52:49.237Z,97.92
2022-10-17T18:59:01.002Z,100.00
2022-10-17T19:01:56.062Z,100.00
2022-10-17T19:05:29.250Z,100.00
2022-10-17T19:09:02.348Z,100.00
2022-10-17T19:12:51.556Z,100.00
2022-10-17T19:20:08.532Z,100.00
2022-10-17T19:23:29.192Z,100.00
2022-10-17T19:27:12.022Z,100.00
2022-10-17T19:30:24.455Z,100.00
2022-10-17T19:33:12.323Z,100.00
2022-10-17T19:36:04.861Z,100.00
2022-10-17T19:38:55.650Z,100.00
2022-10-17T19:41:46.038Z,100.00
2022-10-17T19:44:34.470Z,100.00
2022-10-17T19:47:22.428Z,100.00
2022-10-17T19:50:10.888Z,100.00
2022-10-17T19:53:01.757Z,100.00
2022-10-17T19:55:50.400Z,100.00
2022-10-17T19:58:44.757Z,100.00
2022-10-17T20:01:35.219Z,100.00
2022-10-17T20:04:23.905Z,100.00
2022-10-17T20:07:13.327Z,100.00
2022-10-17T20:10:01.428Z,100.00
2022-10-17T20:12:49.843Z,100.00
2022-10-17T20:15:38.398Z,100.00
2022-10-17T20:18:27.369Z,100.00
2022-10-17T20:21:17.463Z,100.00
2022-10-17T20:24:21.548Z,100.00
2022-10-17T20:27:10.179Z,100.00
2022-10-17T20:30:13.862Z,100.00
2022-10-17T20:33:04.167Z,100.00
2022-10-17T20:35:52.166Z,100.00
2022-10-17T20:38:40.389Z,100.00
2022-10-17T20:41:28.631Z,100.00
2022-10-17T20:44:16.955Z,100.00
2022-10-17T20:47:11.856Z,100.00
2022-10-17T20:50:04.986Z,100.00
2022-10-17T20:52:57.262Z,100.00
2022-10-17T20:56:04.776Z,100.00
2022-10-17T20:58:55.309Z,100.00
2022-10-17T21:01:45.056Z,100.00
2022-10-17T21:04:45.788Z,100.00
2022-10-17T21:11:11.986Z,100.00
2022-10-17T21:14:04.793Z,100.00
2022-10-17T21:16:52.272Z,100.00
2022-10-17T21:19:40.506Z,100.00
2022-10-17T21:22:28.796Z,100.00
2022-10-17T21:25:17.282Z,100.00
2022-10-17T21:28:05.471Z,100.00
2022-10-17T21:30:53.244Z,100.00
2022-10-17T21:33:43.101Z,100.00
2022-10-17T21:36:31.607Z,100.00
2022-10-17T21:39:34.817Z,100.00
2022-10-17T21:42:25.675Z,100.00
2022-10-17T21:49:03.419Z,100.00
2022-10-17T21:51:53.668Z,100.00
2022-10-17T21:54:41.696Z,100.00
2022-10-17T21:57:30.226Z,100.00
2022-10-17T22:00:18.266Z,100.00
2022-10-17T22:03:06.844Z,100.00
2022-10-17T22:06:07.030Z,100.00
2022-10-17T22:09:05.526Z,100.00
2022-10-17T22:11:56.805Z,100.00
2022-10-17T22:14:45.939Z,100.00
2022-10-17T22:17:34.053Z,100.00
2022-10-17T22:20:22.226Z,100.00
2022-10-17T22:23:26.337Z,100.00
2022-10-17T22:26:38.652Z,100.00
2022-10-17T22:29:27.153Z,100.00
2022-10-17T22:32:18.699Z,100.00
2022-10-17T22:35:10.384Z,100.00
2022-10-17T22:37:58.412Z,100.00
2022-10-17T22:40:47.185Z,100.00
2022-10-17T22:43:35.367Z,100.00
2022-10-17T22:46:23.767Z,100.00
2022-10-17T22:49:11.788Z,100.00
2022-10-17T22:51:59.471Z,100.00
2022-10-17T22:54:48.684Z,100.00
2022-10-17T22:57:36.542Z,100.00
2022-10-17T23:04:14.515Z,100.00
2022-10-17T23:07:02.441Z,100.00
2022-10-17T23:09:50.662Z,100.00
2022-10-17T23:12:38.778Z,100.00
2022-10-17T23:15:27.102Z,100.00
2022-10-17T23:18:15.229Z,100.00
2022-10-17T23:21:03.894Z,100.00
2022-10-17T23:23:51.789Z,100.00
2022-10-17T23:26:39.753Z,100.00
2022-10-17T23:29:32.762Z,100.00
2022-10-17T23:32:21.668Z,100.00
2022-10-17T23:35:10.887Z,100.00
2022-10-17T23:37:59.208Z,100.00
2022-10-17T23:40:47.625Z,100.00
2022-10-17T23:43:37.597Z,100.00
2022-10-17T23:46:26.000Z,100.00
2022-10-17T23:49:14.111Z,100.00
2022-10-17T23:52:02.154Z,100.00
2022-10-17T23:54:50.081Z,100.00
2022-10-17T23:57:38.021Z,100.00
